sensor_id;sensor_type;location;lat;lon;timestamp;temperature;humidity
40249;DHT22;25969;49.970;11.062;2023-12-07T05:01:20;1.30;99.90
40249;DHT22;25969;49.970;11.062;2023-12-07T05:11:21;1.30;99.90
40249;DHT22;25969;49.970;11.062;2023-12-07T05:21:21;1.30;99.90
40249;DHT22;25969;49.970;11.062;2023-12-07T05:31:22;1.30;99.90
40249;DHT22;25969;49.970;11.062;2023-12-07T05:41:23;1.40;99.90
40249;DHT22;25969;49.970;11.062;2023-12-07T05:51:24;1.30;99.90
40249;DHT22;25969;49.970;11.062;2023-12-07T06:01:25;1.40;99.90
40249;DHT22;25969;49.970;11.062;2023-12-07T06:11:26;1.40;99.90
40249;DHT22;25969;49.970;11.062;2023-12-07T06:21:26;1.40;99.90
40249;DHT22;25969;49.970;11.062;2023-12-07T06:31:30;1.40;99.90
40249;DHT22;25969;49.970;11.062;2023-12-07T06:41:31;1.30;99.90
40249;DHT22;25969;49.970;11.062;2023-12-07T06:51:31;1.30;99.90
40249;DHT22;25969;49.970;11.062;2023-12-07T07:01:32;1.20;99.90
40249;DHT22;25969;49.970;11.062;2023-12-07T07:11:33;1.30;99.90
40249;DHT22;25969;49.970;11.062;2023-12-07T07:21:34;1.30;99.90
40249;DHT22;25969;49.970;11.062;2023-12-07T07:31:35;1.30;99.90
40249;DHT22;25969;49.970;11.062;2023-12-07T07:41:36;1.50;99.90
40249;DHT22;25969;49.970;11.062;2023-12-07T07:51:37;1.30;99.90
40249;DHT22;25969;49.970;11.062;2023-12-07T08:01:39;1.50;99.90
40249;DHT22;25969;49.970;11.062;2023-12-07T08:11:40;1.70;99.90
40249;DHT22;25969;49.970;11.062;2023-12-07T08:21:41;1.90;99.90
40249;DHT22;25969;49.970;11.062;2023-12-07T08:31:42;1.90;99.90
40249;DHT22;25969;49.970;11.062;2023-12-07T08:41:43;2.20;99.90
40249;DHT22;25969;49.970;11.062;2023-12-07T08:51:44;2.30;99.90
40249;DHT22;25969;49.970;11.062;2023-12-07T09:01:45;2.90;99.90
40249;DHT22;25969;49.970;11.062;2023-12-07T09:11:46;2.30;99.90
40249;DHT22;25969;49.970;11.062;2023-12-07T09:21:47;2.40;99.90
40249;DHT22;25969;49.970;11.062;2023-12-07T09:31:48;2.30;99.90
40249;DHT22;25969;49.970;11.062;2023-12-07T09:41:49;2.10;99.90
40249;DHT22;25969;49.970;11.062;2023-12-07T09:51:50;2.10;99.90
40249;DHT22;25969;49.970;11.062;2023-12-07T10:01:52;2.20;99.90
40249;DHT22;25969;49.970;11.062;2023-12-07T10:12:03;2.30;99.90
40249;DHT22;25969;49.970;11.062;2023-12-07T10:22:13;2.70;99.90
40249;DHT22;25969;49.970;11.062;2023-12-07T10:32:15;4.20;99.90
40249;DHT22;25969;49.970;11.062;2023-12-07T10:42:16;7.10;97.20
40249;DHT22;25969;49.970;11.062;2023-12-07T10:52:22;4.00;99.90
40249;DHT22;25969;49.970;11.062;2023-12-07T11:02:25;3.70;99.90
40249;DHT22;25969;49.970;11.062;2023-12-07T11:12:53;3.80;99.90
40249;DHT22;25969;49.970;11.062;2023-12-07T11:22:56;3.50;99.90
40249;DHT22;25969;49.970;11.062;2023-12-07T11:32:57;4.00;99.90
40249;DHT22;25969;49.970;11.062;2023-12-07T11:42:59;5.00;99.90
40249;DHT22;25969;49.970;11.062;2023-12-07T11:53:00;13.00;89.50
40249;DHT22;25969;49.970;11.062;2023-12-07T12:03:01;19.60;49.30
40249;DHT22;25969;49.970;11.062;2023-12-07T12:13:02;14.10;58.50
40249;DHT22;25969;49.970;11.062;2023-12-07T12:23:03;8.60;72.10
40249;DHT22;25969;49.970;11.062;2023-12-07T12:33:04;13.00;59.70
40249;DHT22;25969;49.970;11.062;2023-12-07T12:43:05;16.80;54.20
40249;DHT22;25969;49.970;11.062;2023-12-07T12:53:08;18.70;48.40
40249;DHT22;25969;49.970;11.062;2023-12-07T13:03:10;16.50;52.70
40249;DHT22;25969;49.970;11.062;2023-12-07T13:13:13;15.30;51.90
40249;DHT22;25969;49.970;11.062;2023-12-07T13:23:14;9.70;63.20
40249;DHT22;25969;49.970;11.062;2023-12-07T13:33:14;11.20;68.60
40249;DHT22;25969;49.970;11.062;2023-12-07T13:43:15;14.60;56.60
40249;DHT22;25969;49.970;11.062;2023-12-07T13:53:16;12.10;63.50
40249;DHT22;25969;49.970;11.062;2023-12-07T14:03:16;12.00;60.90
40249;DHT22;25969;49.970;11.062;2023-12-07T14:13:17;13.00;58.20
40249;DHT22;25969;49.970;11.062;2023-12-07T14:23:18;13.60;56.80
40249;DHT22;25969;49.970;11.062;2023-12-07T14:33:19;8.70;69.80
40249;DHT22;25969;49.970;11.062;2023-12-07T14:43:19;7.30;75.00
40249;DHT22;25969;49.970;11.062;2023-12-07T14:53:21;3.40;91.60
40249;DHT22;25969;49.970;11.062;2023-12-07T15:03:28;2.50;99.50
40249;DHT22;25969;49.970;11.062;2023-12-07T15:13:29;1.30;99.90
40249;DHT22;25969;49.970;11.062;2023-12-07T15:23:30;0.50;99.90
40249;DHT22;25969;49.970;11.062;2023-12-07T15:33:31;-0.10;99.90
40249;DHT22;25969;49.970;11.062;2023-12-07T15:43:32;-0.60;99.90
40249;DHT22;25969;49.970;11.062;2023-12-07T15:53:34;-0.80;99.90
40249;DHT22;25969;49.970;11.062;2023-12-07T16:03:34;-1.10;99.90
40249;DHT22;25969;49.970;11.062;2023-12-07T16:13:36;-1.10;99.90
40249;DHT22;25969;49.970;11.062;2023-12-07T16:23:37;-1.30;99.90
40249;DHT22;25969;49.970;11.062;2023-12-07T16:33:37;-1.20;99.90
40249;DHT22;25969;49.970;11.062;2023-12-07T16:43:38;-1.50;99.90
40249;DHT22;25969;49.970;11.062;2023-12-07T16:53:40;-1.40;99.90
40249;DHT22;25969;49.970;11.062;2023-12-07T17:03:40;-1.40;99.90
40249;DHT22;25969;49.970;11.062;2023-12-07T17:13:41;-0.60;99.90
40249;DHT22;25969;49.970;11.062;2023-12-07T17:23:42;-0.20;99.90
40249;DHT22;25969;49.970;11.062;2023-12-07T17:33:43;-0.10;99.90
40249;DHT22;25969;49.970;11.062;2023-12-07T17:43:44;0.50;99.90
40249;DHT22;25969;49.970;11.062;2023-12-07T17:53:44;0.00;99.90
40249;DHT22;25969;49.970;11.062;2023-12-07T18:03:46;-0.70;99.90
40249;DHT22;25969;49.970;11.062;2023-12-07T18:13:48;-0.70;99.90
40249;DHT22;25969;49.970;11.062;2023-12-07T18:23:49;-0.70;99.90
40249;DHT22;25969;49.970;11.062;2023-12-07T18:33:49;-0.60;99.90
40249;DHT22;25969;49.970;11.062;2023-12-07T18:43:50;-0.70;99.90
40249;DHT22;25969;49.970;11.062;2023-12-07T18:53:51;-0.50;99.90
40249;DHT22;25969;49.970;11.062;2023-12-07T19:03:52;-0.50;99.90
40249;DHT22;25969;49.970;11.062;2023-12-07T19:13:52;-0.40;99.90
40249;DHT22;25969;49.970;11.062;2023-12-07T19:23:53;-0.20;99.90
40249;DHT22;25969;49.970;11.062;2023-12-07T19:33:54;-0.20;99.90
40249;DHT22;25969;49.970;11.062;2023-12-07T19:43:56;-0.20;99.90
40249;DHT22;25969;49.970;11.062;2023-12-07T19:53:58;-0.20;99.90
40249;DHT22;25969;49.970;11.062;2023-12-07T20:04:01;-0.20;99.90
40249;DHT22;25969;49.970;11.062;2023-12-07T20:14:02;-0.20;99.90
40249;DHT22;25969;49.970;11.062;2023-12-07T20:24:04;-0.30;99.90
40249;DHT22;25969;49.970;11.062;2023-12-07T20:34:06;-0.40;99.90
40249;DHT22;25969;49.970;11.062;2023-12-07T20:44:08;0.20;99.90
40249;DHT22;25969;49.970;11.062;2023-12-07T20:54:09;-0.40;99.90
40249;DHT22;25969;49.970;11.062;2023-12-07T21:04:10;-0.30;99.90
40249;DHT22;25969;49.970;11.062;2023-12-07T21:14:11;-0.40;99.90
40249;DHT22;25969;49.970;11.062;2023-12-07T21:24:12;-0.30;99.90
40249;DHT22;25969;49.970;11.062;2023-12-07T21:34:12;-0.60;99.90
40249;DHT22;25969;49.970;11.062;2023-12-07T21:44:13;-0.70;99.90
40249;DHT22;25969;49.970;11.062;2023-12-07T21:54:14;-0.80;99.90
40249;DHT22;25969;49.970;11.062;2023-12-07T22:04:15;-0.90;99.90
40249;DHT22;25969;49.970;11.062;2023-12-07T22:14:15;-0.90;99.90
40249;DHT22;25969;49.970;11.062;2023-12-07T22:24:17;-1.00;99.90
40249;DHT22;25969;49.970;11.062;2023-12-07T22:34:17;-1.00;99.90
40249;DHT22;25969;49.970;11.062;2023-12-07T22:44:18;-0.80;99.90
40249;DHT22;25969;49.970;11.062;2023-12-07T22:54:19;-0.90;99.90
